sensor_id;sensor_type;location;lat;lon;timestamp;pressure;altitude;pressure_sealevel;temperature;humidity
47761;BME280;33524;55.434;38.520;2023-04-03T00:00:47;100072.91;;;6.43;77.33
47761;BME280;33524;55.434;38.520;2023-04-03T00:03:18;100081.28;;;6.34;77.97
47761;BME280;33524;55.434;38.520;2023-04-03T00:05:46;100070.91;;;6.32;78.22
47761;BME280;33524;55.434;38.520;2023-04-03T00:08:13;100074.66;;;6.28;77.97
47761;BME280;33524;55.434;38.520;2023-04-03T00:10:42;100075.50;;;6.29;77.76
47761;BME280;33524;55.434;38.520;2023-04-03T00:13:10;100086.97;;;6.26;78.25
47761;BME280;33524;55.434;38.520;2023-04-03T00:15:37;100082.09;;;6.20;79.03
47761;BME280;33524;55.434;38.520;2023-04-03T00:18:06;100080.78;;;6.13;79.43
47761;BME280;33524;55.434;38.520;2023-04-03T00:20:34;100076.78;;;6.07;79.74
47761;BME280;33524;55.434;38.520;2023-04-03T00:23:02;100068.69;;;6.26;78.76
47761;BME280;33524;55.434;38.520;2023-04-03T00:25:30;100067.69;;;6.43;77.22
47761;BME280;33524;55.434;38.520;2023-04-03T00:27:58;100066.19;;;6.39;77.14
47761;BME280;33524;55.434;38.520;2023-04-03T00:30:26;100070.00;;;6.47;76.96
47761;BME280;33524;55.434;38.520;2023-04-03T00:32:54;100067.84;;;6.40;77.48
47761;BME280;33524;55.434;38.520;2023-04-03T00:35:22;100070.50;;;6.10;79.50
47761;BME280;33524;55.434;38.520;2023-04-03T00:37:53;100065.94;;;5.99;80.22
47761;BME280;33524;55.434;38.520;2023-04-03T00:40:23;100064.69;;;5.90;80.66
47761;BME280;33524;55.434;38.520;2023-04-03T00:42:55;100062.06;;;5.90;80.52
47761;BME280;33524;55.434;38.520;2023-04-03T00:45:29;100068.22;;;5.89;80.70
47761;BME280;33524;55.434;38.520;2023-04-03T00:47:57;100069.59;;;5.80;81.34
47761;BME280;33524;55.434;38.520;2023-04-03T00:50:28;100064.72;;;5.74;81.71
47761;BME280;33524;55.434;38.520;2023-04-03T00:52:56;100070.19;;;5.70;82.01
47761;BME280;33524;55.434;38.520;2023-04-03T00:55:25;100063.06;;;5.73;81.20
47761;BME280;33524;55.434;38.520;2023-04-03T00:57:53;100066.75;;;5.69;81.63
47761;BME280;33524;55.434;38.520;2023-04-03T01:00:22;100067.28;;;5.60;82.37
47761;BME280;33524;55.434;38.520;2023-04-03T01:02:51;100069.66;;;5.49;82.95
47761;BME280;33524;55.434;38.520;2023-04-03T01:05:19;100068.31;;;5.41;83.43
47761;BME280;33524;55.434;38.520;2023-04-03T01:07:48;100073.03;;;5.35;83.79
47761;BME280;33524;55.434;38.520;2023-04-03T01:10:16;100067.16;;;5.31;83.89
47761;BME280;33524;55.434;38.520;2023-04-03T01:12:50;100072.81;;;5.23;84.60
47761;BME280;33524;55.434;38.520;2023-04-03T01:15:23;100068.78;;;5.18;84.94
47761;BME280;33524;55.434;38.520;2023-04-03T01:17:53;100069.28;;;5.09;85.33
47761;BME280;33524;55.434;38.520;2023-04-03T01:28:05;100064.59;;;5.45;81.73
47761;BME280;33524;55.434;38.520;2023-04-03T01:30:45;100071.16;;;5.53;81.07
47761;BME280;33524;55.434;38.520;2023-04-03T01:33:16;100059.25;;;5.79;79.32
47761;BME280;33524;55.434;38.520;2023-04-03T01:35:49;100077.34;;;6.12;77.39
47761;BME280;33524;55.434;38.520;2023-04-03T01:38:17;100066.16;;;6.10;77.29
47761;BME280;33524;55.434;38.520;2023-04-03T01:40:45;100064.00;;;6.02;77.25
47761;BME280;33524;55.434;38.520;2023-04-03T01:43:12;100063.41;;;5.67;78.95
47761;BME280;33524;55.434;38.520;2023-04-03T01:45:40;100061.59;;;5.37;80.43
47761;BME280;33524;55.434;38.520;2023-04-03T01:48:08;100067.91;;;5.33;80.69
47761;BME280;33524;55.434;38.520;2023-04-03T01:50:36;100058.75;;;5.72;78.73
47761;BME280;33524;55.434;38.520;2023-04-03T01:53:08;100064.59;;;5.45;79.95
47761;BME280;33524;55.434;38.520;2023-04-03T01:55:36;100066.31;;;5.31;80.66
47761;BME280;33524;55.434;38.520;2023-04-03T01:58:04;100073.03;;;4.87;82.84
47761;BME280;33524;55.434;38.520;2023-04-03T02:00:32;100075.72;;;4.70;84.48
47761;BME280;33524;55.434;38.520;2023-04-03T02:03:00;100064.69;;;4.64;84.36
47761;BME280;33524;55.434;38.520;2023-04-03T02:05:28;100065.88;;;4.75;83.45
47761;BME280;33524;55.434;38.520;2023-04-03T02:07:56;100065.62;;;5.27;80.61
47761;BME280;33524;55.434;38.520;2023-04-03T02:10:24;100057.69;;;5.60;78.49
47761;BME280;33524;55.434;38.520;2023-04-03T02:12:52;100074.19;;;5.61;78.10
47761;BME280;33524;55.434;38.520;2023-04-03T02:15:19;100061.53;;;5.69;77.57
47761;BME280;33524;55.434;38.520;2023-04-03T02:17:48;100071.16;;;5.69;77.41
47761;BME280;33524;55.434;38.520;2023-04-03T02:20:16;100067.53;;;5.55;77.73
47761;BME280;33524;55.434;38.520;2023-04-03T02:22:43;100070.81;;;5.59;77.47
47761;BME280;33524;55.434;38.520;2023-04-03T02:25:11;100067.81;;;5.51;77.67
47761;BME280;33524;55.434;38.520;2023-04-03T02:27:40;100072.38;;;5.31;78.54
47761;BME280;33524;55.434;38.520;2023-04-03T02:30:08;100077.56;;;5.31;78.46
47761;BME280;33524;55.434;38.520;2023-04-03T02:32:38;100079.59;;;5.42;77.89
47761;BME280;33524;55.434;38.520;2023-04-03T02:35:06;100074.69;;;5.52;77.38
47761;BME280;33524;55.434;38.520;2023-04-03T02:37:34;100067.22;;;5.45;77.54
47761;BME280;33524;55.434;38.520;2023-04-03T02:40:03;100079.09;;;5.35;77.90
47761;BME280;33524;55.434;38.520;2023-04-03T02:42:31;100073.19;;;5.47;77.41
47761;BME280;33524;55.434;38.520;2023-04-03T02:44:59;100078.34;;;5.33;77.78
47761;BME280;33524;55.434;38.520;2023-04-03T02:47:28;100077.44;;;5.02;79.07
47761;BME280;33524;55.434;38.520;2023-04-03T02:49:56;100077.13;;;4.75;80.48
47761;BME280;33524;55.434;38.520;2023-04-03T02:52:23;100079.78;;;4.91;79.85
47761;BME280;33524;55.434;38.520;2023-04-03T02:54:52;100086.25;;;5.00;79.48
47761;BME280;33524;55.434;38.520;2023-04-03T02:57:23;100072.22;;;5.18;78.37
47761;BME280;33524;55.434;38.520;2023-04-03T02:59:51;100086.47;;;4.63;81.30
47761;BME280;33524;55.434;38.520;2023-04-03T03:02:19;100080.56;;;4.60;81.80
47761;BME280;33524;55.434;38.520;2023-04-03T03:04:46;100085.97;;;4.73;80.81
47761;BME280;33524;55.434;38.520;2023-04-03T03:07:17;100089.91;;;4.64;81.35
47761;BME280;33524;55.434;38.520;2023-04-03T03:09:45;100085.28;;;4.53;81.84
47761;BME280;33524;55.434;38.520;2023-04-03T03:12:13;100087.63;;;4.58;81.92
47761;BME280;33524;55.434;38.520;2023-04-03T03:14:41;100092.00;;;4.57;81.57
47761;BME280;33524;55.434;38.520;2023-04-03T03:17:10;100100.69;;;4.74;80.64
47761;BME280;33524;55.434;38.520;2023-04-03T03:19:38;100091.87;;;4.76;80.55
47761;BME280;33524;55.434;38.520;2023-04-03T03:22:09;100099.62;;;5.10;78.86
47761;BME280;33524;55.434;38.520;2023-04-03T03:24:37;100094.84;;;5.34;77.34
47761;BME280;33524;55.434;38.520;2023-04-03T03:27:04;100092.88;;;5.37;77.10
47761;BME280;33524;55.434;38.520;2023-04-03T03:29:32;100089.78;;;5.46;76.49
47761;BME280;33524;55.434;38.520;2023-04-03T03:32:01;100094.16;;;5.46;76.49
47761;BME280;33524;55.434;38.520;2023-04-03T03:34:28;100093.75;;;5.38;76.98
47761;BME280;33524;55.434;38.520;2023-04-03T03:36:56;100097.87;;;5.42;76.84
47761;BME280;33524;55.434;38.520;2023-04-03T03:39:24;100107.72;;;5.05;80.22
47761;BME280;33524;55.434;38.520;2023-04-03T03:41:52;100103.84;;;4.96;80.18
47761;BME280;33524;55.434;38.520;2023-04-03T03:44:22;100107.31;;;4.63;84.32
47761;BME280;33524;55.434;38.520;2023-04-03T03:46:51;100100.72;;;4.56;84.98
47761;BME280;33524;55.434;38.520;2023-04-03T03:49:19;100101.03;;;4.50;86.37
47761;BME280;33524;55.434;38.520;2023-04-03T03:51:47;100098.53;;;4.49;87.29
47761;BME280;33524;55.434;38.520;2023-04-03T03:54:16;100097.53;;;4.51;86.48
47761;BME280;33524;55.434;38.520;2023-04-03T03:56:43;100092.31;;;4.51;87.25
47761;BME280;33524;55.434;38.520;2023-04-03T03:59:14;100101.78;;;4.70;86.65
47761;BME280;33524;55.434;38.520;2023-04-03T04:01:42;100097.25;;;4.89;85.20
47761;BME280;33524;55.434;38.520;2023-04-03T04:04:11;100096.16;;;4.93;84.13
47761;BME280;33524;55.434;38.520;2023-04-03T04:06:39;100095.75;;;4.85;86.93
47761;BME280;33524;55.434;38.520;2023-04-03T04:09:08;100096.44;;;5.04;85.04
47761;BME280;33524;55.434;38.520;2023-04-03T04:11:36;100101.00;;;5.17;84.69
47761;BME280;33524;55.434;38.520;2023-04-03T04:14:04;100101.50;;;5.23;84.09
47761;BME280;33524;55.434;38.520;2023-04-03T04:16:31;100087.63;;;5.69;79.04
47761;BME280;33524;55.434;38.520;2023-04-03T04:19:00;100086.91;;;5.51;82.65
47761;BME280;33524;55.434;38.520;2023-04-03T04:21:28;100099.09;;;5.66;79.54
47761;BME280;33524;55.434;38.520;2023-04-03T04:23:56;100093.53;;;6.03;76.62
47761;BME280;33524;55.434;38.520;2023-04-03T04:26:25;100096.50;;;5.97;80.40
47761;BME280;33524;55.434;38.520;2023-04-03T04:28:53;100098.78;;;6.17;76.43
47761;BME280;33524;55.434;38.520;2023-04-03T04:31:21;100099.47;;;6.35;76.12
47761;BME280;33524;55.434;38.520;2023-04-03T04:33:49;100102.53;;;6.28;79.72
47761;BME280;33524;55.434;38.520;2023-04-03T04:36:17;100103.53;;;6.55;74.76
47761;BME280;33524;55.434;38.520;2023-04-03T04:38:45;100105.19;;;6.85;73.10
47761;BME280;33524;55.434;38.520;2023-04-03T04:41:14;100103.47;;;6.98;72.53
47761;BME280;33524;55.434;38.520;2023-04-03T04:43:42;100102.09;;;7.07;73.68
47761;BME280;33524;55.434;38.520;2023-04-03T04:46:09;100098.88;;;7.16;72.13
47761;BME280;33524;55.434;38.520;2023-04-03T04:48:41;100105.47;;;7.36;71.10
47761;BME280;33524;55.434;38.520;2023-04-03T04:51:09;100106.28;;;7.51;71.01
47761;BME280;33524;55.434;38.520;2023-04-03T04:53:38;100107.12;;;7.64;70.28
47761;BME280;33524;55.434;38.520;2023-04-03T04:56:06;100110.41;;;7.68;70.45
47761;BME280;33524;55.434;38.520;2023-04-03T04:58:35;100105.84;;;7.84;69.92
47761;BME280;33524;55.434;38.520;2023-04-03T05:01:06;100097.28;;;7.95;69.78
47761;BME280;33524;55.434;38.520;2023-04-03T05:03:35;100103.41;;;8.08;69.78
47761;BME280;33524;55.434;38.520;2023-04-03T05:06:04;100108.44;;;8.24;69.00
47761;BME280;33524;55.434;38.520;2023-04-03T05:08:32;100105.56;;;8.42;68.32
47761;BME280;33524;55.434;38.520;2023-04-03T05:11:00;100102.81;;;8.56;67.93
47761;BME280;33524;55.434;38.520;2023-04-03T05:13:29;100094.13;;;8.68;67.61
47761;BME280;33524;55.434;38.520;2023-04-03T05:15:57;100094.44;;;8.77;67.81
47761;BME280;33524;55.434;38.520;2023-04-03T05:18:25;100096.91;;;8.91;67.31
47761;BME280;33524;55.434;38.520;2023-04-03T05:20:54;100101.06;;;9.06;66.73
47761;BME280;33524;55.434;38.520;2023-04-03T05:23:25;100093.53;;;9.02;67.70
47761;BME280;33524;55.434;38.520;2023-04-03T05:25:54;100091.25;;;8.97;68.45
47761;BME280;33524;55.434;38.520;2023-04-03T05:28:22;100098.97;;;8.99;67.95
47761;BME280;33524;55.434;38.520;2023-04-03T05:30:57;100104.81;;;9.15;67.76
47761;BME280;33524;55.434;38.520;2023-04-03T05:33:25;100105.50;;;9.30;67.03
47761;BME280;33524;55.434;38.520;2023-04-03T05:35:54;100102.53;;;9.47;66.47
47761;BME280;33524;55.434;38.520;2023-04-03T05:38:23;100099.66;;;9.50;66.58
47761;BME280;33524;55.434;38.520;2023-04-03T05:40:52;100105.00;;;9.73;66.18
47761;BME280;33524;55.434;38.520;2023-04-03T05:43:19;100107.78;;;9.72;66.26
47761;BME280;33524;55.434;38.520;2023-04-03T05:45:50;100102.84;;;9.67;66.57
47761;BME280;33524;55.434;38.520;2023-04-03T05:48:18;100104.19;;;9.73;66.52
47761;BME280;33524;55.434;38.520;2023-04-03T05:50:46;100109.38;;;9.85;66.30
47761;BME280;33524;55.434;38.520;2023-04-03T05:53:19;100109.75;;;9.92;65.93
47761;BME280;33524;55.434;38.520;2023-04-03T05:55:48;100108.91;;;9.92;65.66
47761;BME280;33524;55.434;38.520;2023-04-03T05:58:16;100107.88;;;10.05;65.98
47761;BME280;33524;55.434;38.520;2023-04-03T06:00:45;100117.78;;;10.02;65.98
47761;BME280;33524;55.434;38.520;2023-04-03T06:03:16;100107.06;;;10.16;65.85
47761;BME280;33524;55.434;38.520;2023-04-03T06:05:44;100112.34;;;10.16;65.53
47761;BME280;33524;55.434;38.520;2023-04-03T06:08:14;100114.94;;;10.05;65.95
47761;BME280;33524;55.434;38.520;2023-04-03T06:10:41;100115.00;;;10.27;65.87
47761;BME280;33524;55.434;38.520;2023-04-03T06:13:10;100125.81;;;10.47;65.25
47761;BME280;33524;55.434;38.520;2023-04-03T06:15:38;100117.47;;;10.42;65.54
47761;BME280;33524;55.434;38.520;2023-04-03T06:18:08;100120.09;;;10.64;65.03
47761;BME280;33524;55.434;38.520;2023-04-03T06:20:36;100122.72;;;10.64;64.85
47761;BME280;33524;55.434;38.520;2023-04-03T06:23:05;100121.06;;;10.86;64.90
47761;BME280;33524;55.434;38.520;2023-04-03T06:25:34;100119.16;;;11.10;64.06
47761;BME280;33524;55.434;38.520;2023-04-03T06:28:02;100126.06;;;11.11;64.23
47761;BME280;33524;55.434;38.520;2023-04-03T06:30:30;100123.19;;;11.26;63.50
47761;BME280;33524;55.434;38.520;2023-04-03T06:32:58;100122.53;;;11.45;63.20
47761;BME280;33524;55.434;38.520;2023-04-03T06:35:26;100119.19;;;11.43;61.08
47761;BME280;33524;55.434;38.520;2023-04-03T06:37:56;100117.63;;;11.51;62.70
47761;BME280;33524;55.434;38.520;2023-04-03T06:40:24;100119.66;;;11.91;62.93
47761;BME280;33524;55.434;38.520;2023-04-03T06:42:52;100115.69;;;11.97;62.60
47761;BME280;33524;55.434;38.520;2023-04-03T06:45:20;100117.50;;;11.85;61.56
47761;BME280;33524;55.434;38.520;2023-04-03T06:47:48;100113.44;;;11.81;62.57
47761;BME280;33524;55.434;38.520;2023-04-03T06:50:16;100119.88;;;12.00;61.45
47761;BME280;33524;55.434;38.520;2023-04-03T06:52:44;100113.44;;;11.81;60.45
47761;BME280;33524;55.434;38.520;2023-04-03T06:55:12;100115.59;;;11.87;63.52
47761;BME280;33524;55.434;38.520;2023-04-03T06:57:39;100112.28;;;12.27;62.55
47761;BME280;33524;55.434;38.520;2023-04-03T07:00:07;100118.25;;;12.29;58.26
47761;BME280;33524;55.434;38.520;2023-04-03T07:02:37;100120.53;;;12.34;62.75
47761;BME280;33524;55.434;38.520;2023-04-03T07:05:04;100133.19;;;12.61;62.19
47761;BME280;33524;55.434;38.520;2023-04-03T07:07:33;100135.81;;;12.61;62.13
47761;BME280;33524;55.434;38.520;2023-04-03T07:10:01;100138.66;;;12.69;61.80
47761;BME280;33524;55.434;38.520;2023-04-03T07:12:28;100137.41;;;12.74;61.97
47761;BME280;33524;55.434;38.520;2023-04-03T07:14:56;100132.59;;;12.58;61.95
47761;BME280;33524;55.434;38.520;2023-04-03T07:17:24;100132.53;;;12.48;59.30
47761;BME280;33524;55.434;38.520;2023-04-03T07:19:52;100129.38;;;12.54;60.60
47761;BME280;33524;55.434;38.520;2023-04-03T07:22:20;100132.63;;;12.37;58.98
47761;BME280;33524;55.434;38.520;2023-04-03T07:24:48;100136.72;;;12.71;62.48
47761;BME280;33524;55.434;38.520;2023-04-03T07:27:15;100142.53;;;13.06;61.56
47761;BME280;33524;55.434;38.520;2023-04-03T07:29:43;100146.28;;;13.03;61.33
47761;BME280;33524;55.434;38.520;2023-04-03T07:32:11;100144.22;;;13.38;60.81
47761;BME280;33524;55.434;38.520;2023-04-03T07:34:39;100144.38;;;13.46;60.69
47761;BME280;33524;55.434;38.520;2023-04-03T07:37:07;100147.47;;;13.90;59.66
47761;BME280;33524;55.434;38.520;2023-04-03T07:39:36;100149.13;;;13.52;57.66
47761;BME280;33524;55.434;38.520;2023-04-03T07:42:03;100146.63;;;14.19;57.62
47761;BME280;33524;55.434;38.520;2023-04-03T07:44:31;100136.84;;;14.58;58.63
47761;BME280;33524;55.434;38.520;2023-04-03T07:46:59;100136.56;;;14.42;57.48
47761;BME280;33524;55.434;38.520;2023-04-03T07:49:27;100135.63;;;14.90;57.93
47761;BME280;33524;55.434;38.520;2023-04-03T07:51:55;100132.59;;;14.85;58.52
47761;BME280;33524;55.434;38.520;2023-04-03T07:54:22;100135.41;;;14.73;51.47
47761;BME280;33524;55.434;38.520;2023-04-03T07:56:49;100132.44;;;14.86;58.49
47761;BME280;33524;55.434;38.520;2023-04-03T07:59:18;100133.06;;;15.53;58.18
47761;BME280;33524;55.434;38.520;2023-04-03T08:01:45;100129.25;;;15.38;56.95
47761;BME280;33524;55.434;38.520;2023-04-03T08:04:13;100132.97;;;15.73;56.93
47761;BME280;33524;55.434;38.520;2023-04-03T08:06:41;100134.16;;;15.61;58.04
47761;BME280;33524;55.434;38.520;2023-04-03T08:09:14;100135.53;;;16.19;53.13
47761;BME280;33524;55.434;38.520;2023-04-03T08:11:42;100125.06;;;16.43;53.02
47761;BME280;33524;55.434;38.520;2023-04-03T08:14:10;100135.66;;;16.17;55.50
47761;BME280;33524;55.434;38.520;2023-04-03T08:16:45;100140.50;;;16.04;51.64
47761;BME280;33524;55.434;38.520;2023-04-03T08:19:14;100138.13;;;15.92;50.98
47761;BME280;33524;55.434;38.520;2023-04-03T08:21:53;100138.47;;;15.98;50.35
47761;BME280;33524;55.434;38.520;2023-04-03T08:24:21;100136.59;;;15.72;55.31
47761;BME280;33524;55.434;38.520;2023-04-03T08:26:49;100137.72;;;16.49;55.57
47761;BME280;33524;55.434;38.520;2023-04-03T08:29:17;100133.00;;;16.35;55.34
47761;BME280;33524;55.434;38.520;2023-04-03T08:31:44;100135.25;;;15.86;55.42
47761;BME280;33524;55.434;38.520;2023-04-03T08:34:13;100135.00;;;15.97;57.91
47761;BME280;33524;55.434;38.520;2023-04-03T08:36:42;100148.19;;;16.07;50.92
47761;BME280;33524;55.434;38.520;2023-04-03T08:39:10;100136.81;;;16.14;48.16
47761;BME280;33524;55.434;38.520;2023-04-03T08:41:44;100149.41;;;15.94;49.20
47761;BME280;33524;55.434;38.520;2023-04-03T08:44:25;100145.75;;;15.32;49.84
47761;BME280;33524;55.434;38.520;2023-04-03T08:47:11;100151.53;;;16.09;49.92
47761;BME280;33524;55.434;38.520;2023-04-03T08:49:46;100144.59;;;16.60;52.34
47761;BME280;33524;55.434;38.520;2023-04-03T08:52:19;100146.81;;;16.03;49.67
47761;BME280;33524;55.434;38.520;2023-04-03T08:54:48;100148.94;;;15.81;55.30
47761;BME280;33524;55.434;38.520;2023-04-03T08:57:20;100141.94;;;16.34;49.66
47761;BME280;33524;55.434;38.520;2023-04-03T08:59:52;100146.28;;;15.81;58.05
47761;BME280;33524;55.434;38.520;2023-04-03T09:02:28;100153.00;;;15.30;49.32
47761;BME280;33524;55.434;38.520;2023-04-03T09:05:01;100152.91;;;15.22;48.69
47761;BME280;33524;55.434;38.520;2023-04-03T09:07:39;100151.91;;;15.23;58.64
47761;BME280;33524;55.434;38.520;2023-04-03T09:10:11;100156.41;;;15.22;49.70
47761;BME280;33524;55.434;38.520;2023-04-03T09:12:44;100158.50;;;15.64;54.56
47761;BME280;33524;55.434;38.520;2023-04-03T09:15:20;100168.69;;;15.69;47.22
47761;BME280;33524;55.434;38.520;2023-04-03T09:20:46;100165.19;;;14.76;49.01
47761;BME280;33524;55.434;38.520;2023-04-03T09:23:32;100160.47;;;14.69;49.43
47761;BME280;33524;55.434;38.520;2023-04-03T09:26:02;100168.00;;;15.39;49.73
47761;BME280;33524;55.434;38.520;2023-04-03T09:28:34;100165.25;;;14.56;55.05
47761;BME280;33524;55.434;38.520;2023-04-03T09:33:43;100169.75;;;14.26;50.25
47761;BME280;33524;55.434;38.520;2023-04-03T09:36:12;100170.03;;;14.04;50.78
47761;BME280;33524;55.434;38.520;2023-04-03T09:38:40;100173.88;;;13.80;51.51
47761;BME280;33524;55.434;38.520;2023-04-03T09:41:15;100168.88;;;13.67;51.39
47761;BME280;33524;55.434;38.520;2023-04-03T09:43:51;100174.25;;;13.46;51.99
47761;BME280;33524;55.434;38.520;2023-04-03T09:49:01;100173.22;;;13.88;52.01
47761;BME280;33524;55.434;38.520;2023-04-03T09:51:35;100167.75;;;14.48;56.10
47761;BME280;33524;55.434;38.520;2023-04-03T09:54:24;100172.09;;;14.29;51.05
47761;BME280;33524;55.434;38.520;2023-04-03T09:56:53;100171.78;;;13.55;52.56
47761;BME280;33524;55.434;38.520;2023-04-03T09:59:23;100165.75;;;14.79;64.64
47761;BME280;33524;55.434;38.520;2023-04-03T10:02:02;100166.63;;;15.63;63.69
47761;BME280;33524;55.434;38.520;2023-04-03T10:04:37;100163.72;;;14.44;50.74
47761;BME280;33524;55.434;38.520;2023-04-03T10:07:30;100168.34;;;13.83;52.83
47761;BME280;33524;55.434;38.520;2023-04-03T10:12:39;100163.41;;;13.40;55.38
47761;BME280;33524;55.434;38.520;2023-04-03T10:15:19;100161.94;;;13.96;64.32
47761;BME280;33524;55.434;38.520;2023-04-03T10:20:27;100172.19;;;13.60;54.30
47761;BME280;33524;55.434;38.520;2023-04-03T10:25:55;100170.41;;;13.70;54.14
47761;BME280;33524;55.434;38.520;2023-04-03T10:47:37;100168.50;;;15.52;52.93
47761;BME280;33524;55.434;38.520;2023-04-03T10:57:46;100167.53;;;15.26;49.87
47761;BME280;33524;55.434;38.520;2023-04-03T11:00:19;100168.91;;;15.30;50.33
47761;BME280;33524;55.434;38.520;2023-04-03T11:03:01;100168.47;;;15.07;50.72
47761;BME280;33524;55.434;38.520;2023-04-03T11:05:39;100157.47;;;15.02;50.88
47761;BME280;33524;55.434;38.520;2023-04-03T11:08:23;100162.06;;;15.55;49.97
47761;BME280;33524;55.434;38.520;2023-04-03T11:10:55;100164.50;;;15.66;63.32
47761;BME280;33524;55.434;38.520;2023-04-03T11:15:56;100151.75;;;16.86;61.20
47761;BME280;33524;55.434;38.520;2023-04-03T11:18:31;100154.78;;;16.91;59.34
47761;BME280;33524;55.434;38.520;2023-04-03T11:21:51;100150.56;;;17.14;59.02
47761;BME280;33524;55.434;38.520;2023-04-03T11:23:50;100148.53;;;17.08;53.51
47761;BME280;33524;55.434;38.520;2023-04-03T11:26:19;100151.44;;;16.89;52.30
47761;BME280;33524;55.434;38.520;2023-04-03T11:28:59;100147.03;;;17.06;57.97
47761;BME280;33524;55.434;38.520;2023-04-03T11:31:55;100152.81;;;16.75;55.98
47761;BME280;33524;55.434;38.520;2023-04-03T11:34:39;100147.31;;;16.68;54.62
47761;BME280;33524;55.434;38.520;2023-04-03T11:37:15;100150.13;;;16.67;53.76
47761;BME280;33524;55.434;38.520;2023-04-03T11:39:55;100150.81;;;16.95;57.75
47761;BME280;33524;55.434;38.520;2023-04-03T11:42:40;100149.56;;;16.81;57.44
47761;BME280;33524;55.434;38.520;2023-04-03T11:58:18;100153.25;;;16.62;57.42
47761;BME280;33524;55.434;38.520;2023-04-03T12:00:47;100150.16;;;16.49;56.97
47761;BME280;33524;55.434;38.520;2023-04-03T12:08:53;100149.91;;;16.16;57.79
47761;BME280;33524;55.434;38.520;2023-04-03T12:11:30;100155.75;;;16.02;58.63
47761;BME280;33524;55.434;38.520;2023-04-03T12:16:32;100148.41;;;15.96;59.65
47761;BME280;33524;55.434;38.520;2023-04-03T12:26:48;100154.72;;;16.39;57.75
47761;BME280;33524;55.434;38.520;2023-04-03T12:29:23;100151.25;;;16.20;58.60
47761;BME280;33524;55.434;38.520;2023-04-03T12:47:45;100155.75;;;15.38;56.00
47761;BME280;33524;55.434;38.520;2023-04-03T12:50:23;100160.16;;;15.75;58.72
47761;BME280;33524;55.434;38.520;2023-04-03T12:52:56;100158.47;;;15.01;52.33
47761;BME280;33524;55.434;38.520;2023-04-03T12:55:25;100156.41;;;14.85;60.00
47761;BME280;33524;55.434;38.520;2023-04-03T12:57:53;100159.19;;;15.48;61.04
47761;BME280;33524;55.434;38.520;2023-04-03T13:00:32;100161.69;;;15.68;60.26
47761;BME280;33524;55.434;38.520;2023-04-03T13:03:01;100160.78;;;15.59;60.95
47761;BME280;33524;55.434;38.520;2023-04-03T13:05:30;100152.44;;;15.36;61.51
47761;BME280;33524;55.434;38.520;2023-04-03T13:08:04;100155.56;;;15.22;61.56
47761;BME280;33524;55.434;38.520;2023-04-03T13:10:32;100151.53;;;15.45;61.12
47761;BME280;33524;55.434;38.520;2023-04-03T13:13:06;100160.28;;;15.46;61.25
47761;BME280;33524;55.434;38.520;2023-04-03T13:15:45;100150.69;;;15.45;61.29
47761;BME280;33524;55.434;38.520;2023-04-03T13:18:30;100158.19;;;15.49;60.69
47761;BME280;33524;55.434;38.520;2023-04-03T13:21:01;100149.09;;;14.40;57.75
47761;BME280;33524;55.434;38.520;2023-04-03T13:23:30;100155.13;;;14.22;63.68
47761;BME280;33524;55.434;38.520;2023-04-03T13:25:58;100156.09;;;14.21;56.42
47761;BME280;33524;55.434;38.520;2023-04-03T13:28:31;100154.47;;;15.14;62.15
47761;BME280;33524;55.434;38.520;2023-04-03T13:31:01;100161.12;;;13.85;52.21
47761;BME280;33524;55.434;38.520;2023-04-03T13:33:31;100157.22;;;14.28;55.75
47761;BME280;33524;55.434;38.520;2023-04-03T13:36:16;100146.84;;;14.54;54.34
47761;BME280;33524;55.434;38.520;2023-04-03T13:38:44;100153.16;;;14.34;63.36
47761;BME280;33524;55.434;38.520;2023-04-03T13:41:26;100154.97;;;14.33;52.92
47761;BME280;33524;55.434;38.520;2023-04-03T13:43:56;100157.88;;;13.72;59.64
47761;BME280;33524;55.434;38.520;2023-04-03T13:46:39;100151.03;;;14.57;64.32
47761;BME280;33524;55.434;38.520;2023-04-03T13:51:56;100153.59;;;13.90;52.50
47761;BME280;33524;55.434;38.520;2023-04-03T13:54:35;100141.38;;;13.89;61.50
47761;BME280;33524;55.434;38.520;2023-04-03T13:57:11;100140.53;;;14.85;61.36
47761;BME280;33524;55.434;38.520;2023-04-03T13:59:40;100143.44;;;14.82;64.11
47761;BME280;33524;55.434;38.520;2023-04-03T14:07:12;100144.69;;;14.30;61.78
47761;BME280;33524;55.434;38.520;2023-04-03T14:09:40;100144.81;;;13.80;53.66
47761;BME280;33524;55.434;38.520;2023-04-03T14:12:12;100149.34;;;13.39;53.20
47761;BME280;33524;55.434;38.520;2023-04-03T14:14:57;100149.41;;;12.87;56.92
47761;BME280;33524;55.434;38.520;2023-04-03T14:17:25;100148.25;;;13.42;64.45
47761;BME280;33524;55.434;38.520;2023-04-03T14:19:54;100146.63;;;13.20;53.94
47761;BME280;33524;55.434;38.520;2023-04-03T14:22:26;100143.25;;;13.48;67.72
47761;BME280;33524;55.434;38.520;2023-04-03T14:24:55;100151.16;;;12.98;63.26
47761;BME280;33524;55.434;38.520;2023-04-03T14:27:24;100155.78;;;12.85;67.15
47761;BME280;33524;55.434;38.520;2023-04-03T14:29:53;100145.63;;;13.21;65.54
47761;BME280;33524;55.434;38.520;2023-04-03T14:32:21;100153.09;;;12.96;67.62
47761;BME280;33524;55.434;38.520;2023-04-03T14:34:50;100141.56;;;12.45;66.00
47761;BME280;33524;55.434;38.520;2023-04-03T14:37:20;100141.69;;;12.44;65.89
47761;BME280;33524;55.434;38.520;2023-04-03T14:39:48;100136.41;;;12.44;70.10
47761;BME280;33524;55.434;38.520;2023-04-03T14:42:18;100146.34;;;12.82;59.69
47761;BME280;33524;55.434;38.520;2023-04-03T14:44:49;100137.19;;;12.35;62.97
47761;BME280;33524;55.434;38.520;2023-04-03T14:47:21;100143.28;;;11.93;59.28